Time;durP1;ratioP1;P1;durP2;ratioP2;P2;SDS_P1;SDS_P2;PMS_P1;PMS_P2;Temp;Humidity;BMP_temperature;BMP_pressure;BME280_temperature;BME280_humidity;BME280_pressure;Samples;Min_cycle;Max_cycle;Signal;HPM_P1;HPM_P2
2022/07/02 00:00:57;;;;;;;15.13;8.80;;;;;;;;;;5034026;23;20100;-61
2022/07/02 00:03:32;;;;;;;18.13;8.57;;;;;;;;;;5030712;28;20040;-61
2022/07/02 00:06:03;;;;;;;16.65;9.35;;;;;;;;;;5030624;28;20021;-60
2022/07/02 00:08:29;;;;;;;16.80;8.80;;;;;;;;;;5030507;28;20021;-61
2022/07/02 00:10:56;;;;;;;17.50;8.98;;;;;;;;;;5031356;28;20056;-58
2022/07/02 00:13:22;;;;;;;16.48;9.18;;;;;;;;;;5031611;28;20048;-60
2022/07/02 00:15:49;;;;;;;18.17;9.38;;;;;;;;;;5031641;28;20057;-58
2022/07/02 00:18:15;;;;;;;19.42;9.65;;;;;;;;;;5030718;28;20053;-59
2022/07/02 00:20:43;;;;;;;17.38;8.73;;;;;;;;;;5031562;28;20076;-62
2022/07/02 00:23:09;;;;;;;19.88;10.05;;;;;;;;;;5032092;28;20401;-60
2022/07/02 00:25:39;;;;;;;17.17;8.65;;;;;;;;;;5017224;28;20063;-61
2022/07/02 00:28:12;;;;;;;17.42;9.32;;;;;;;;;;5016443;28;20512;-60
2022/07/02 00:30:39;;;;;;;17.95;8.85;;;;;;;;;;5034721;28;20032;-59
2022/07/02 00:33:05;;;;;;;16.67;8.57;;;;;;;;;;5016968;28;20034;-56
2022/07/02 00:35:33;;;;;;;18.92;9.43;;;;;;;;;;5034986;28;20045;-60
2022/07/02 00:37:59;;;;;;;17.05;8.75;;;;;;;;;;5034048;28;20053;-60
2022/07/02 00:40:25;;;;;;;18.40;9.25;;;;;;;;;;5034735;28;20389;-59
2022/07/02 00:42:51;;;;;;;18.80;10.07;;;;;;;;;;5034479;28;20025;-57
2022/07/02 00:45:18;;;;;;;16.90;9.13;;;;;;;;;;5016920;28;20029;-60
2022/07/02 00:47:44;;;;;;;19.17;9.18;;;;;;;;;;5033795;28;20409;-60
2022/07/02 00:50:10;;;;;;;19.85;9.60;;;;;;;;;;5034526;28;20466;-56
2022/07/02 00:52:36;;;;;;;19.65;9.45;;;;;;;;;;5016608;28;20033;-59
2022/07/02 00:55:02;;;;;;;16.58;9.27;;;;;;;;;;5034532;28;20022;-58
2022/07/02 00:57:29;;;;;;;16.20;9.77;;;;;;;;;;5033768;28;20029;-61
2022/07/02 00:59:55;;;;;;;17.13;9.10;;;;;;;;;;5034195;28;20029;-60
2022/07/02 01:02:21;;;;;;;17.83;9.50;;;;;;;;;;5034233;28;20120;-58
2022/07/02 01:04:48;;;;;;;17.10;9.57;;;;;;;;;;5016360;28;20079;-57
2022/07/02 01:07:15;;;;;;;19.38;9.50;;;;;;;;;;5015875;28;20022;-63
2022/07/02 01:12:31;;;;;;;19.50;11.15;;;;;;;;;;5034422;28;20113;-60
2022/07/02 01:14:57;;;;;;;17.52;10.50;;;;;;;;;;5034058;28;20069;-56
2022/07/02 01:17:23;;;;;;;20.98;10.45;;;;;;;;;;5033541;28;20103;-59
2022/07/02 01:19:49;;;;;;;19.98;10.13;;;;;;;;;;5033869;28;20034;-61
2022/07/02 01:22:15;;;;;;;17.25;9.80;;;;;;;;;;5016376;28;20033;-57
2022/07/02 01:24:42;;;;;;;19.70;9.80;;;;;;;;;;5033720;28;20113;-60
2022/07/02 01:27:08;;;;;;;19.85;10.40;;;;;;;;;;5033450;28;20029;-54
2022/07/02 01:29:34;;;;;;;18.15;9.98;;;;;;;;;;5033368;28;20022;-60
2022/07/02 01:32:00;;;;;;;17.52;10.05;;;;;;;;;;5015802;28;20017;-60
2022/07/02 01:34:27;;;;;;;18.10;10.50;;;;;;;;;;5015118;28;20057;-58
2022/07/02 01:36:53;;;;;;;21.48;10.27;;;;;;;;;;5033068;28;20478;-60
2022/07/02 01:39:26;;;;;;;18.10;10.60;;;;;;;;;;5032857;28;20389;-61
2022/07/02 01:41:52;;;;;;;18.58;10.25;;;;;;;;;;5033343;28;20031;-59
2022/07/02 01:44:19;;;;;;;18.00;10.38;;;;;;;;;;5033562;28;20053;-56
2022/07/02 01:46:45;;;;;;;18.80;10.07;;;;;;;;;;5033439;28;20026;-60
2022/07/02 01:49:11;;;;;;;20.13;10.32;;;;;;;;;;5032694;28;20529;-60
2022/07/02 01:51:37;;;;;;;18.40;10.50;;;;;;;;;;5033341;28;20022;-61
2022/07/02 01:54:03;;;;;;;18.20;10.27;;;;;;;;;;5033328;28;20097;-60
2022/07/02 01:56:33;;;;;;;18.63;11.10;;;;;;;;;;5033284;28;20067;-63
2022/07/02 01:58:59;;;;;;;18.95;11.45;;;;;;;;;;5032493;28;20021;-59
2022/07/02 02:01:25;;;;;;;17.17;10.88;;;;;;;;;;5032946;28;20037;-59
2022/07/02 02:03:51;;;;;;;21.67;10.63;;;;;;;;;;5033051;28;20473;-60
2022/07/02 02:06:17;;;;;;;17.38;10.73;;;;;;;;;;5033239;28;20440;-60
2022/07/02 02:08:43;;;;;;;17.77;10.95;;;;;;;;;;5014651;28;20026;-60
2022/07/02 02:11:09;;;;;;;17.85;10.65;;;;;;;;;;5032835;28;20079;-61
2022/07/02 02:13:35;;;;;;;17.20;10.35;;;;;;;;;;5033164;28;20489;-59
2022/07/02 02:16:01;;;;;;;19.13;11.27;;;;;;;;;;5033128;28;20026;-61
2022/07/02 02:18:27;;;;;;;19.20;10.70;;;;;;;;;;5031992;28;20032;-59
2022/07/02 02:20:53;;;;;;;19.55;10.77;;;;;;;;;;5032431;28;20029;-60
2022/07/02 02:23:19;;;;;;;19.55;10.77;;;;;;;;;;5032629;28;20079;-57
2022/07/02 02:25:45;;;;;;;20.98;10.70;;;;;;;;;;5015071;28;21002;-59
2022/07/02 02:28:11;;;;;;;18.23;10.48;;;;;;;;;;5032246;28;20026;-61
2022/07/02 02:30:37;;;;;;;17.45;10.70;;;;;;;;;;5014825;28;20032;-59
2022/07/02 02:33:03;;;;;;;20.20;10.90;;;;;;;;;;5015005;28;20053;-58
2022/07/02 02:35:29;;;;;;;18.45;10.68;;;;;;;;;;5032652;28;20030;-56
2022/07/02 02:37:55;;;;;;;22.02;11.07;;;;;;;;;;5031658;28;20071;-61
2022/07/02 02:40:21;;;;;;;18.23;10.25;;;;;;;;;;5032555;28;20030;-62
2022/07/02 02:42:47;;;;;;;19.90;11.05;;;;;;;;;;5014702;28;20022;-59
2022/07/02 02:45:13;;;;;;;21.20;11.13;;;;;;;;;;5032474;28;20026;-60
2022/07/02 02:47:39;;;;;;;20.92;11.65;;;;;;;;;;5031431;28;20022;-61
2022/07/02 02:50:05;;;;;;;19.05;11.65;;;;;;;;;;5032384;28;20390;-63
2022/07/02 02:52:31;;;;;;;18.83;11.10;;;;;;;;;;5032355;28;20029;-58
2022/07/02 02:54:57;;;;;;;19.30;11.15;;;;;;;;;;5014542;28;20025;-58
2022/07/02 02:57:23;;;;;;;20.48;11.00;;;;;;;;;;5013882;28;20032;-60
2022/07/02 02:59:49;;;;;;;18.38;10.73;;;;;;;;;;5032265;28;20033;-60
2022/07/02 03:02:15;;;;;;;21.17;10.95;;;;;;;;;;5014522;28;20029;-60
2022/07/02 03:04:41;;;;;;;20.73;10.85;;;;;;;;;;5031942;28;20029;-55
2022/07/02 03:07:07;;;;;;;21.60;11.02;;;;;;;;;;5031760;28;20022;-55
2022/07/02 03:09:33;;;;;;;19.60;11.77;;;;;;;;;;5031368;28;20087;-59
2022/07/02 03:11:59;;;;;;;22.65;11.93;;;;;;;;;;5031927;28;20429;-61
2022/07/02 03:14:25;;;;;;;26.13;11.52;;;;;;;;;;5032113;28;20087;-59
2022/07/02 03:16:51;;;;;;;19.40;10.77;;;;;;;;;;5032044;28;20021;-60
2022/07/02 03:19:17;;;;;;;24.85;11.38;;;;;;;;;;5031268;28;20061;-56
2022/07/02 03:21:43;;;;;;;25.08;11.32;;;;;;;;;;5031981;28;20032;-58
2022/07/02 03:24:09;;;;;;;19.75;11.88;;;;;;;;;;5014251;28;20061;-56
2022/07/02 03:26:35;;;;;;;22.10;10.45;;;;;;;;;;5031898;28;20509;-57
2022/07/02 03:29:01;;;;;;;21.08;10.80;;;;;;;;;;5031239;28;20049;-60
2022/07/02 03:31:27;;;;;;;19.17;10.55;;;;;;;;;;5031624;28;20021;-53
2022/07/02 03:33:53;;;;;;;25.40;11.75;;;;;;;;;;5031821;28;20022;-60
2022/07/02 03:36:19;;;;;;;19.85;10.73;;;;;;;;;;5031687;28;20032;-60
2022/07/02 03:38:45;;;;;;;18.63;11.00;;;;;;;;;;5030867;28;20486;-60
2022/07/02 03:41:11;;;;;;;20.10;11.00;;;;;;;;;;5031687;28;20128;-60
2022/07/02 03:43:37;;;;;;;18.60;10.00;;;;;;;;;;5013900;28;20079;-58
2022/07/02 03:46:03;;;;;;;19.45;10.70;;;;;;;;;;5031681;28;20025;-61
2022/07/02 03:48:29;;;;;;;19.67;10.60;;;;;;;;;;5013273;28;20485;-58
2022/07/02 03:50:55;;;;;;;19.02;10.68;;;;;;;;;;5031446;28;20030;-57
2022/07/02 03:53:21;;;;;;;21.63;10.40;;;;;;;;;;5031726;28;20079;-61
2022/07/02 03:55:47;;;;;;;19.75;10.10;;;;;;;;;;5031836;28;20083;-61
2022/07/02 03:58:13;;;;;;;19.88;9.95;;;;;;;;;;5032031;28;20021;-61
2022/07/02 04:00:39;;;;;;;19.77;10.35;;;;;;;;;;5017818;28;20482;-60
2022/07/02 04:03:06;;;;;;;19.55;10.32;;;;;;;;;;5035712;28;20108;-62
2022/07/02 04:05:32;;;;;;;20.95;10.50;;;;;;;;;;5035645;28;20025;-61
2022/07/02 04:07:58;;;;;;;22.08;11.52;;;;;;;;;;5017240;28;20076;-60
2022/07/02 04:10:24;;;;;;;23.25;11.02;;;;;;;;;;5035252;28;20087;-61
2022/07/02 04:12:50;;;;;;;20.40;10.05;;;;;;;;;;5035370;28;20021;-60
2022/07/02 04:15:16;;;;;;;19.17;10.20;;;;;;;;;;5035165;28;20496;-60
2022/07/02 04:17:42;;;;;;;21.88;10.77;;;;;;;;;;5034469;28;20017;-61
2022/07/02 04:20:08;;;;;;;19.85;10.43;;;;;;;;;;5034996;28;20029;-60
2022/07/02 04:22:34;;;;;;;21.88;10.23;;;;;;;;;;5035112;28;20071;-60
2022/07/02 04:25:00;;;;;;;21.15;10.00;;;;;;;;;;5035124;28;20473;-61
2022/07/02 04:27:26;;;;;;;18.75;10.23;;;;;;;;;;5034252;28;20029;-59
2022/07/02 04:29:52;;;;;;;18.20;10.55;;;;;;;;;;5017115;28;20026;-61
2022/07/02 04:32:18;;;;;;;19.73;9.43;;;;;;;;;;5034731;28;20021;-58
2022/07/02 04:34:44;;;;;;;19.60;10.10;;;;;;;;;;5034545;28;20374;-59
2022/07/02 04:37:10;;;;;;;17.75;9.75;;;;;;;;;;5016460;28;20499;-56
2022/07/02 04:39:36;;;;;;;19.88;10.30;;;;;;;;;;5034365;28;20030;-58
2022/07/02 04:42:02;;;;;;;17.90;9.60;;;;;;;;;;5034683;28;20108;-59
2022/07/02 04:44:29;;;;;;;20.05;10.30;;;;;;;;;;5034510;28;20135;-60
2022/07/02 04:46:55;;;;;;;17.75;9.82;;;;;;;;;;5034347;28;20486;-55
2022/07/02 04:49:21;;;;;;;21.27;9.80;;;;;;;;;;5033726;28;20033;-61
2022/07/02 04:51:47;;;;;;;18.55;9.57;;;;;;;;;;5034306;28;20018;-60
2022/07/02 04:54:13;;;;;;;16.63;9.30;;;;;;;;;;5034172;28;20053;-60
2022/07/02 04:56:39;;;;;;;18.98;10.18;;;;;;;;;;5034385;28;20064;-60
2022/07/02 04:59:05;;;;;;;20.95;10.20;;;;;;;;;;5033505;28;20033;-58
2022/07/02 05:01:31;;;;;;;18.27;10.02;;;;;;;;;;5034023;28;20103;-60
2022/07/02 05:03:57;;;;;;;20.90;10.10;;;;;;;;;;5034001;28;20108;-57
2022/07/02 05:06:23;;;;;;;21.02;10.18;;;;;;;;;;5034184;28;20021;-60
2022/07/02 05:08:50;;;;;;;18.52;10.90;;;;;;;;;;5015464;28;20029;-57
2022/07/02 05:11:18;;;;;;;21.77;13.32;;;;;;;;;;5016131;28;20022;-59
2022/07/02 05:13:44;;;;;;;17.38;9.75;;;;;;;;;;5034099;28;20069;-61
2022/07/02 05:16:10;;;;;;;21.30;10.40;;;;;;;;;;5034076;28;20028;-57
2022/07/02 05:18:36;;;;;;;16.60;9.93;;;;;;;;;;5033085;28;20021;-60
2022/07/02 05:21:02;;;;;;;19.30;11.00;;;;;;;;;;5033805;28;20030;-59
2022/07/02 05:23:28;;;;;;;18.33;9.85;;;;;;;;;;5033830;28;20026;-62
2022/07/02 05:25:54;;;;;;;19.55;10.48;;;;;;;;;;5034275;28;20025;-60
2022/07/02 05:28:20;;;;;;;19.42;10.50;;;;;;;;;;5015229;28;20033;-60
2022/07/02 05:30:46;;;;;;;19.42;9.25;;;;;;;;;;5033690;28;20072;-60
2022/07/02 05:33:12;;;;;;;19.13;10.65;;;;;;;;;;5033443;28;20025;-60
2022/07/02 05:35:38;;;;;;;19.13;10.32;;;;;;;;;;5015907;28;20036;-60
2022/07/02 05:38:04;;;;;;;20.70;11.52;;;;;;;;;;5032601;28;20381;-62
2022/07/02 05:40:30;;;;;;;18.30;10.32;;;;;;;;;;5033379;28;20021;-58
2022/07/02 05:42:56;;;;;;;18.23;10.10;;;;;;;;;;5033238;28;20036;-59
2022/07/02 05:45:22;;;;;;;18.17;10.27;;;;;;;;;;5033336;28;20405;-60
2022/07/02 05:47:48;;;;;;;17.10;9.55;;;;;;;;;;5032234;28;20025;-60
2022/07/02 05:50:14;;;;;;;21.63;10.15;;;;;;;;;;5033301;28;20407;-59
2022/07/02 05:52:40;;;;;;;17.40;9.95;;;;;;;;;;5033164;28;20033;-60
2022/07/02 05:55:06;;;;;;;18.50;9.95;;;;;;;;;;5033082;28;20509;-60
2022/07/02 05:57:32;;;;;;;18.75;10.20;;;;;;;;;;5014427;28;20124;-60
2022/07/02 05:59:58;;;;;;;19.05;9.52;;;;;;;;;;5032888;28;20057;-60
2022/07/02 06:02:24;;;;;;;17.45;9.90;;;;;;;;;;5046882;22;20073;-63
2022/07/02 06:04:50;;;;;;;19.10;11.38;;;;;;;;;;5031542;28;20117;-63
2022/07/02 06:10:01;;;;;;;18.52;9.68;;;;;;;;;;5031832;28;20146;-63
2022/07/02 06:12:27;;;;;;;18.27;9.70;;;;;;;;;;5031450;28;20065;-62
2022/07/02 06:14:53;;;;;;;18.38;9.70;;;;;;;;;;5013743;28;20482;-62
2022/07/02 06:17:19;;;;;;;17.02;9.95;;;;;;;;;;5030473;28;20022;-62
2022/07/02 06:19:47;;;;;;;18.00;9.77;;;;;;;;;;5031445;28;20029;-62
2022/07/02 06:22:13;;;;;;;17.13;9.07;;;;;;;;;;5030671;28;20132;-63
2022/07/02 06:24:39;;;;;;;16.77;9.40;;;;;;;;;;5031322;28;20041;-63
2022/07/02 06:27:05;;;;;;;18.60;9.73;;;;;;;;;;5031108;28;20027;-62
2022/07/02 06:29:31;;;;;;;17.23;9.20;;;;;;;;;;5030634;28;20494;-62
2022/07/02 06:31:57;;;;;;;16.10;9.00;;;;;;;;;;5031182;28;20112;-63
2022/07/02 06:34:23;;;;;;;21.35;9.30;;;;;;;;;;5031442;28;20025;-59
2022/07/02 06:36:49;;;;;;;17.40;9.40;;;;;;;;;;5031283;28;20500;-63
2022/07/02 06:39:15;;;;;;;18.35;9.38;;;;;;;;;;5030567;28;20108;-64
2022/07/02 06:44:26;;;;;;;23.50;9.95;;;;;;;;;;5031205;28;20095;-63
2022/07/02 06:46:52;;;;;;;17.48;9.80;;;;;;;;;;5031077;28;20017;-62
2022/07/02 06:49:18;;;;;;;16.60;9.55;;;;;;;;;;5030542;28;20389;-62
2022/07/02 06:51:44;;;;;;;17.70;9.48;;;;;;;;;;5031261;28;20079;-61
2022/07/02 06:54:10;;;;;;;15.60;9.48;;;;;;;;;;5031168;28;20470;-64
2022/07/02 06:56:36;;;;;;;17.48;9.30;;;;;;;;;;5031153;28;20033;-62
2022/07/02 06:59:03;;;;;;;15.63;9.57;;;;;;;;;;5030540;28;20144;-63
2022/07/02 07:01:29;;;;;;;16.73;9.50;;;;;;;;;;5030682;28;20033;-62
2022/07/02 07:03:55;;;;;;;16.55;9.15;;;;;;;;;;5030829;28;20021;-63
2022/07/02 07:06:44;;;;;;;16.55;9.27;;;;;;;;;;5030826;28;20022;-64
2022/07/02 07:09:09;;;;;;;19.05;9.30;;;;;;;;;;5029550;28;20437;-64
2022/07/02 07:11:35;;;;;;;17.77;9.18;;;;;;;;;;5030787;28;20477;-62
2022/07/02 07:14:01;;;;;;;18.42;9.30;;;;;;;;;;5030599;28;20129;-63
2022/07/02 07:16:27;;;;;;;17.00;9.00;;;;;;;;;;5030900;28;20053;-63
2022/07/02 07:19:13;;;;;;;17.75;9.77;;;;;;;;;;5012600;28;20462;-63
2022/07/02 07:21:39;;;;;;;15.43;8.75;;;;;;;;;;5030256;28;20045;-63
2022/07/02 07:24:06;;;;;;;15.07;9.13;;;;;;;;;;5012649;28;20439;-61
2022/07/02 07:26:32;;;;;;;16.98;8.68;;;;;;;;;;5030713;28;20029;-62
2022/07/02 07:28:58;;;;;;;16.95;9.00;;;;;;;;;;5029617;28;20025;-62
2022/07/02 07:31:24;;;;;;;15.85;8.80;;;;;;;;;;5030501;28;20025;-62
2022/07/02 07:33:51;;;;;;;17.10;8.38;;;;;;;;;;5033858;28;20034;-62
2022/07/02 07:36:21;;;;;;;14.60;8.35;;;;;;;;;;5034491;28;20063;-62
2022/07/02 07:38:48;;;;;;;15.55;8.93;;;;;;;;;;5033752;28;20112;-62
2022/07/02 07:41:14;;;;;;;15.75;8.60;;;;;;;;;;5034542;28;20104;-62
2022/07/02 07:43:40;;;;;;;15.40;8.90;;;;;;;;;;5034157;28;20029;-62
2022/07/02 07:46:06;;;;;;;18.60;8.95;;;;;;;;;;5034119;28;20058;-63
2022/07/02 07:48:32;;;;;;;17.27;8.60;;;;;;;;;;5033531;28;20026;-62
2022/07/02 07:50:59;;;;;;;16.70;9.23;;;;;;;;;;5010136;28;20076;-63
2022/07/02 07:53:25;;;;;;;15.23;9.07;;;;;;;;;;5033810;28;20047;-64
2022/07/02 07:55:51;;;;;;;20.75;10.00;;;;;;;;;;5034145;28;20025;-63
2022/07/02 07:58:17;;;;;;;18.35;9.57;;;;;;;;;;5033580;28;20044;-63
2022/07/02 08:00:43;;;;;;;15.95;8.90;;;;;;;;;;5033879;28;20080;-60
2022/07/02 08:03:10;;;;;;;16.95;9.98;;;;;;;;;;5033868;28;20087;-60
2022/07/02 08:05:36;;;;;;;17.45;9.50;;;;;;;;;;5033640;28;20033;-60
2022/07/02 08:08:02;;;;;;;16.10;9.15;;;;;;;;;;5033095;28;20427;-59
2022/07/02 08:10:28;;;;;;;19.90;9.50;;;;;;;;;;5033367;28;20039;-58
2022/07/02 08:12:55;;;;;;;15.23;8.48;;;;;;;;;;5033733;28;20048;-61
2022/07/02 08:15:21;;;;;;;17.55;9.23;;;;;;;;;;5033611;28;20021;-60
2022/07/02 08:17:47;;;;;;;15.40;8.90;;;;;;;;;;5031349;28;20505;-60
2022/07/02 08:20:13;;;;;;;16.42;8.93;;;;;;;;;;5027206;28;20029;-61
2022/07/02 08:22:39;;;;;;;19.13;9.68;;;;;;;;;;5029833;28;20018;-61
2022/07/02 08:25:06;;;;;;;17.00;9.10;;;;;;;;;;5033406;28;20032;-59
2022/07/02 08:27:33;;;;;;;15.93;9.45;;;;;;;;;;5032706;28;20044;-57
2022/07/02 08:29:59;;;;;;;16.52;9.75;;;;;;;;;;5016835;28;20490;-61
2022/07/02 08:32:25;;;;;;;15.48;9.10;;;;;;;;;;4995732;28;20033;-58
2022/07/02 08:34:52;;;;;;;15.05;9.25;;;;;;;;;;5013631;28;20030;-59
2022/07/02 08:37:18;;;;;;;16.73;9.57;;;;;;;;;;5019065;28;20033;-60
2022/07/02 08:39:44;;;;;;;15.45;9.60;;;;;;;;;;5033280;28;20025;-57
2022/07/02 08:42:10;;;;;;;14.82;9.43;;;;;;;;;;5033266;28;20035;-60
2022/07/02 08:44:37;;;;;;;14.93;9.65;;;;;;;;;;5032272;28;20032;-60
2022/07/02 08:47:07;;;;;;;14.82;9.45;;;;;;;;;;5032793;28;20026;-58
2022/07/02 08:49:34;;;;;;;15.45;9.40;;;;;;;;;;5040911;28;20025;-61
2022/07/02 08:52:04;;;;;;;16.98;9.75;;;;;;;;;;5052868;28;20500;-59
2022/07/02 08:54:33;;;;;;;16.27;9.60;;;;;;;;;;5045170;28;20075;-61
2022/07/02 09:00:03;;;;;;;15.85;9.27;;;;;;;;;;5032980;28;20067;-60
2022/07/02 09:02:30;;;;;;;16.75;9.90;;;;;;;;;;5032742;28;20039;-59
2022/07/02 09:04:57;;;;;;;15.07;9.80;;;;;;;;;;5032808;28;20027;-59
2022/07/02 09:07:23;;;;;;;18.23;10.02;;;;;;;;;;5032065;28;20039;-59
2022/07/02 09:09:50;;;;;;;17.30;9.82;;;;;;;;;;5032497;28;20025;-59
2022/07/02 09:12:16;;;;;;;16.30;9.73;;;;;;;;;;5032663;28;20366;-55
2022/07/02 09:14:43;;;;;;;15.75;9.63;;;;;;;;;;5032730;28;20026;-59
2022/07/02 09:17:10;;;;;;;15.40;9.70;;;;;;;;;;5032435;28;20049;-59
2022/07/02 09:19:37;;;;;;;16.05;9.40;;;;;;;;;;5032361;28;20026;-56
2022/07/02 09:22:03;;;;;;;15.32;9.75;;;;;;;;;;5032386;28;20551;-62
2022/07/02 09:24:29;;;;;;;16.05;9.77;;;;;;;;;;5031888;28;20414;-60
2022/07/02 09:27:14;;;;;;;15.35;9.55;;;;;;;;;;5032304;28;20018;-66
2022/07/02 09:29:52;;;;;;;14.55;9.57;;;;;;;;;;5032510;28;20021;-65
2022/07/02 09:32:19;;;;;;;15.65;9.65;;;;;;;;;;5032270;28;20500;-67
2022/07/02 09:34:49;;;;;;;15.85;9.50;;;;;;;;;;5032636;28;20029;-66
2022/07/02 09:37:15;;;;;;;17.42;9.93;;;;;;;;;;5031866;28;20021;-66
2022/07/02 09:39:43;;;;;;;16.80;9.77;;;;;;;;;;5032217;28;20029;-68
2022/07/02 09:42:09;;;;;;;15.37;10.03;;;;;;;;;;5032326;28;20026;-66
2022/07/02 09:44:35;;;;;;;15.48;9.93;;;;;;;;;;5032240;28;20036;-67
2022/07/02 09:47:01;;;;;;;16.45;10.30;;;;;;;;;;5014650;28;20014;-66
2022/07/02 09:49:27;;;;;;;16.60;10.70;;;;;;;;;;5031833;28;20032;-67
2022/07/02 09:51:54;;;;;;;15.65;9.93;;;;;;;;;;5032119;28;20026;-64
2022/07/02 09:54:24;;;;;;;16.67;9.95;;;;;;;;;;5031771;28;20103;-64
2022/07/02 09:56:54;;;;;;;15.02;10.20;;;;;;;;;;5030955;28;20107;-67
2022/07/02 09:59:20;;;;;;;14.85;9.60;;;;;;;;;;5013121;28;20032;-67
2022/07/02 10:01:46;;;;;;;17.63;10.02;;;;;;;;;;5031574;28;20037;-67
2022/07/02 10:04:13;;;;;;;14.90;10.18;;;;;;;;;;5031644;28;20485;-67
2022/07/02 10:06:40;;;;;;;14.73;10.05;;;;;;;;;;5031596;28;20121;-67
2022/07/02 10:09:07;;;;;;;17.85;9.95;;;;;;;;;;5030814;28;20022;-68
2022/07/02 10:11:34;;;;;;;17.58;10.32;;;;;;;;;;5031437;28;20032;-68
2022/07/02 10:14:00;;;;;;;16.45;10.20;;;;;;;;;;5013771;28;20025;-67
2022/07/02 10:16:27;;;;;;;15.73;9.90;;;;;;;;;;5031561;28;20029;-66
2022/07/02 10:18:54;;;;;;;14.88;10.20;;;;;;;;;;5031100;28;20409;-66
2022/07/02 10:21:21;;;;;;;14.77;9.80;;;;;;;;;;5031141;28;20069;-67
2022/07/02 10:23:47;;;;;;;14.98;9.80;;;;;;;;;;5031881;28;20029;-66
2022/07/02 10:26:13;;;;;;;16.15;9.80;;;;;;;;;;5031201;28;20075;-66
2022/07/02 10:28:39;;;;;;;15.85;9.60;;;;;;;;;;5012896;28;20032;-66
2022/07/02 10:31:12;;;;;;;14.35;9.48;;;;;;;;;;5013389;28;20025;-65
2022/07/02 10:33:41;;;;;;;14.63;9.55;;;;;;;;;;5031212;28;20100;-66
2022/07/02 10:36:10;;;;;;;16.80;10.32;;;;;;;;;;5031069;28;20029;-67
2022/07/02 10:38:40;;;;;;;15.77;9.95;;;;;;;;;;5020880;28;20168;-66
2022/07/02 10:41:08;;;;;;;15.35;9.70;;;;;;;;;;5013859;28;20036;-66
2022/07/02 10:43:35;;;;;;;20.80;10.38;;;;;;;;;;5028951;28;20036;-67
2022/07/02 10:46:09;;;;;;;17.90;9.70;;;;;;;;;;5030626;28;20184;-66
2022/07/02 10:48:36;;;;;;;16.50;9.70;;;;;;;;;;5029860;28;20021;-66
2022/07/02 10:51:02;;;;;;;17.08;9.52;;;;;;;;;;5030747;28;20436;-65
2022/07/02 10:53:29;;;;;;;14.30;9.55;;;;;;;;;;5029353;28;20026;-66
2022/07/02 10:56:02;;;;;;;15.95;9.88;;;;;;;;;;5030660;28;20032;-67
2022/07/02 10:58:31;;;;;;;15.77;9.77;;;;;;;;;;5030071;28;20021;-66
2022/07/02 11:01:08;;;;;;;15.10;10.32;;;;;;;;;;5030810;28;20107;-69
2022/07/02 11:03:34;;;;;;;16.60;10.10;;;;;;;;;;5030491;28;20029;-68
2022/07/02 11:06:03;;;;;;;14.98;9.85;;;;;;;;;;5030679;28;20075;-70
2022/07/02 11:08:45;;;;;;;17.70;9.70;;;;;;;;;;5029394;28;20025;-69
2022/07/02 11:11:12;;;;;;;15.80;9.88;;;;;;;;;;5030331;28;20366;-69
2022/07/02 11:13:49;;;;;;;14.57;9.80;;;;;;;;;;5030567;28;20036;-68
2022/07/02 11:16:18;;;;;;;14.95;9.73;;;;;;;;;;5030485;28;20113;-68
2022/07/02 11:18:46;;;;;;;15.52;9.75;;;;;;;;;;5029867;28;20175;-69
2022/07/02 11:21:15;;;;;;;16.90;10.27;;;;;;;;;;5030551;28;20075;-69
2022/07/02 11:23:41;;;;;;;14.82;9.75;;;;;;;;;;5030543;28;20087;-67
2022/07/02 11:26:07;;;;;;;16.23;10.13;;;;;;;;;;5030721;28;20033;-69
2022/07/02 11:28:36;;;;;;;15.82;9.90;;;;;;;;;;5029654;28;20025;-69
2022/07/02 11:31:05;;;;;;;16.60;9.90;;;;;;;;;;5030382;28;20022;-69
2022/07/02 11:33:31;;;;;;;;;;;;;;;;;;5013070;28;20036;-68
2022/07/02 11:35:57;;;;;;;15.23;9.90;;;;;;;;;;5029946;28;19935;-68
2022/07/02 11:38:23;;;;;;;15.50;10.00;;;;;;;;;;5029017;28;20034;-67
2022/07/02 11:40:49;;;;;;;16.40;9.70;;;;;;;;;;5012173;28;20048;-68
2022/07/02 11:43:15;;;;;;;15.40;10.07;;;;;;;;;;5030038;28;20477;-69
2022/07/02 11:45:50;;;;;;;15.98;9.90;;;;;;;;;;5030152;28;20056;-67
2022/07/02 11:48:23;;;;;;;15.57;10.10;;;;;;;;;;5029605;28;20018;-67
2022/07/02 11:50:56;;;;;;;14.90;10.00;;;;;;;;;;5030063;28;20018;-66
2022/07/02 11:53:22;;;;;;;14.85;10.45;;;;;;;;;;5012312;28;20032;-68
2022/07/02 11:55:48;;;;;;;16.90;10.60;;;;;;;;;;5030191;28;20076;-68
2022/07/02 11:58:14;;;;;;;14.63;10.38;;;;;;;;;;5029336;28;20025;-69
2022/07/02 12:00:40;;;;;;;15.43;10.77;;;;;;;;;;5011982;28;20040;-68
2022/07/02 12:03:13;;;;;;;15.00;10.48;;;;;;;;;;5053102;23;20490;-59
2022/07/02 12:05:52;;;;;;;14.65;10.50;;;;;;;;;;5031617;28;20030;-61
2022/07/02 12:08:18;;;;;;;14.65;10.52;;;;;;;;;;5030593;28;20470;-61
2022/07/02 12:10:44;;;;;;;14.68;10.18;;;;;;;;;;5030875;28;20099;-59
2022/07/02 12:13:11;;;;;;;15.73;10.15;;;;;;;;;;5031285;28;20119;-59
2022/07/02 12:15:43;;;;;;;14.98;10.20;;;;;;;;;;5031271;28;20017;-57
2022/07/02 12:18:19;;;;;;;14.77;10.48;;;;;;;;;;5030439;28;20356;-61
2022/07/02 12:20:45;;;;;;;15.02;10.52;;;;;;;;;;5032899;28;20018;-59
2022/07/02 12:23:11;;;;;;;14.98;10.20;;;;;;;;;;5034473;28;20093;-59
2022/07/02 12:25:44;;;;;;;14.60;10.50;;;;;;;;;;5035050;28;20120;-59
2022/07/02 12:30:55;;;;;;;15.75;10.73;;;;;;;;;;5034597;28;20160;-60
2022/07/02 12:33:31;;;;;;;15.20;10.20;;;;;;;;;;5036525;28;20025;-61
2022/07/02 12:36:04;;;;;;;15.30;10.50;;;;;;;;;;5034907;28;20048;-59
2022/07/02 12:38:42;;;;;;;15.30;10.30;;;;;;;;;;5034184;28;20021;-52
2022/07/02 12:41:08;;;;;;;14.65;9.50;;;;;;;;;;5034961;28;20030;-59
2022/07/02 12:43:34;;;;;;;15.15;9.55;;;;;;;;;;5034616;28;20095;-56
2022/07/02 12:46:09;;;;;;;14.35;9.50;;;;;;;;;;5034578;28;20542;-60
2022/07/02 12:48:44;;;;;;;14.70;9.90;;;;;;;;;;4677784;28;9999615;-59
2022/07/02 12:51:11;;;;;;;14.45;9.85;;;;;;;;;;5031998;28;20133;-61
2022/07/02 12:53:37;;;;;;;15.38;10.20;;;;;;;;;;5031670;28;20144;-58
2022/07/02 12:56:04;;;;;;;17.92;10.07;;;;;;;;;;5028473;28;20026;-60
2022/07/02 12:58:31;;;;;;;15.30;9.60;;;;;;;;;;5010917;28;20140;-60
2022/07/02 13:00:57;;;;;;;14.82;9.98;;;;;;;;;;4993803;28;20034;-60
2022/07/02 13:03:24;;;;;;;15.85;10.00;;;;;;;;;;5011403;28;20030;-59
2022/07/02 13:05:51;;;;;;;15.38;9.68;;;;;;;;;;5025662;28;20520;-61
2022/07/02 13:08:20;;;;;;;15.88;9.95;;;;;;;;;;5032478;28;20549;-61
2022/07/02 13:10:46;;;;;;;15.10;9.80;;;;;;;;;;5034382;28;20076;-59
2022/07/02 13:13:13;;;;;;;15.23;9.85;;;;;;;;;;5033189;28;20096;-57
2022/07/02 13:15:39;;;;;;;15.15;10.30;;;;;;;;;;5034434;28;20017;-57
2022/07/02 13:18:05;;;;;;;15.57;10.18;;;;;;;;;;5033329;28;20568;-57
2022/07/02 13:20:31;;;;;;;16.65;10.73;;;;;;;;;;5016487;28;20155;-59
2022/07/02 13:22:57;;;;;;;15.50;9.90;;;;;;;;;;5030192;28;20104;-61
2022/07/02 13:25:23;;;;;;;16.25;10.23;;;;;;;;;;5034093;28;20120;-57
2022/07/02 13:27:50;;;;;;;14.88;9.90;;;;;;;;;;4682098;28;9999802;-57
2022/07/02 13:30:17;;;;;;;16.90;10.60;;;;;;;;;;5012959;28;20021;-62
2022/07/02 13:32:43;;;;;;;18.17;10.88;;;;;;;;;;5031916;28;20370;-57
2022/07/02 13:35:09;;;;;;;14.70;10.80;;;;;;;;;;5030282;28;20040;-57
2022/07/02 13:37:36;;;;;;;15.82;10.63;;;;;;;;;;5029365;28;20052;-61
2022/07/02 13:40:03;;;;;;;15.02;10.80;;;;;;;;;;5029804;28;20037;-59
2022/07/02 13:42:29;;;;;;;16.40;10.25;;;;;;;;;;5030386;28;20485;-59
2022/07/02 13:44:55;;;;;;;15.70;10.43;;;;;;;;;;5013052;28;20034;-60
2022/07/02 13:47:22;;;;;;;15.65;10.60;;;;;;;;;;5029879;28;20021;-61
2022/07/02 13:49:49;;;;;;;15.40;10.40;;;;;;;;;;5030133;28;20056;-61
2022/07/02 13:52:15;;;;;;;15.60;10.40;;;;;;;;;;5030323;28;20101;-61
2022/07/02 13:54:41;;;;;;;14.98;10.32;;;;;;;;;;5031728;28;20092;-60
2022/07/02 13:57:07;;;;;;;18.33;10.60;;;;;;;;;;5033225;28;20135;-61
2022/07/02 13:59:33;;;;;;;14.90;10.60;;;;;;;;;;5032586;28;20197;-58
2022/07/02 14:02:02;;;;;;;15.52;10.90;;;;;;;;;;5032845;28;20533;-60
2022/07/02 14:04:28;;;;;;;15.43;11.10;;;;;;;;;;5033373;28;20091;-56
2022/07/02 14:06:54;;;;;;;16.15;10.70;;;;;;;;;;5032952;28;20079;-58
2022/07/02 14:09:20;;;;;;;14.77;10.70;;;;;;;;;;5032082;28;20047;-60
2022/07/02 14:11:46;;;;;;;17.23;10.70;;;;;;;;;;5032999;28;20025;-57
2022/07/02 14:14:12;;;;;;;14.55;10.40;;;;;;;;;;5033037;28;20025;-59
2022/07/02 14:16:38;;;;;;;14.70;10.20;;;;;;;;;;5014967;28;20745;-60
2022/07/02 14:19:04;;;;;;;14.55;10.63;;;;;;;;;;5032302;28;20033;-57
2022/07/02 14:21:30;;;;;;;23.42;10.98;;;;;;;;;;5032830;28;20030;-56
2022/07/02 14:23:56;;;;;;;16.13;10.77;;;;;;;;;;5032795;28;20492;-57
2022/07/02 14:26:22;;;;;;;15.13;10.70;;;;;;;;;;5052898;28;20021;-60
2022/07/02 14:28:48;;;;;;;14.93;10.50;;;;;;;;;;5052153;28;20079;-60
2022/07/02 14:31:14;;;;;;;17.83;10.98;;;;;;;;;;5034744;28;20025;-60
2022/07/02 14:33:40;;;;;;;17.58;11.00;;;;;;;;;;5052786;28;20021;-60
2022/07/02 14:36:06;;;;;;;16.17;10.67;;;;;;;;;;4689240;28;10000520;-60